Time;durP1;ratioP1;P1;durP2;ratioP2;P2;SDS_P1;SDS_P2;PMS_P1;PMS_P2;Temp;Humidity;BMP_temperature;BMP_pressure;BME280_temperature;BME280_humidity;BME280_pressure;Samples;Min_cycle;Max_cycle;Signal;HPM_P1;HPM_P2
2022/04/27 00:02:12;;;;;;;6.47;4.43;;;6.60;99.90;;;;;;5070672;28;20165;-72
2022/04/27 00:04:37;;;;;;;6.50;4.73;;;6.60;99.90;;;;;;5071351;28;20111;-72
2022/04/27 00:07:04;;;;;;;7.73;4.57;;;6.70;99.90;;;;;;5071271;28;20407;-72
2022/04/27 00:09:30;;;;;;;6.97;4.20;;;6.60;99.90;;;;;;5072105;28;20029;-72
2022/04/27 00:11:59;;;;;;;6.90;4.20;;;6.50;99.90;;;;;;5071679;28;20028;-72
2022/04/27 00:14:25;;;;;;;5.90;3.93;;;;;;;;;;5071944;28;20029;-72
2022/04/27 00:16:51;;;;;;;6.63;3.40;;;;;;;;;;5071399;28;20109;-72
2022/04/27 00:19:17;;;;;;;6.63;3.63;;;6.60;99.90;;;;;;5071260;28;20525;-72
2022/04/27 00:21:42;;;;;;;6.17;4.20;;;6.30;99.90;;;;;;5071954;28;20443;-71
2022/04/27 00:24:08;;;;;;;8.53;4.20;;;;;;;;;;5070664;28;20043;-73
2022/04/27 00:26:34;;;;;;;7.60;4.37;;;6.60;99.90;;;;;;5071401;28;20042;-73
2022/04/27 00:28:59;;;;;;;9.17;5.07;;;6.60;99.90;;;;;;5070856;28;20029;-72
2022/04/27 00:31:25;;;;;;;6.47;4.13;;;6.50;99.90;;;;;;5070774;28;20024;-72
2022/04/27 00:33:50;;;;;;;12.30;4.57;;;6.50;99.90;;;;;;5070553;28;20405;-72
2022/04/27 00:36:16;;;;;;;5.17;4.10;;;;;;;;;;5070559;28;20056;-72
2022/04/27 00:38:42;;;;;;;8.37;4.43;;;6.50;99.90;;;;;;5070586;28;20035;-72
2022/04/27 00:41:07;;;;;;;7.17;4.33;;;6.30;99.90;;;;;;5070265;28;20063;-72
2022/04/27 00:43:37;;;;;;;5.83;4.27;;;6.10;99.90;;;;;;5070893;28;20504;-72
2022/04/27 00:46:03;;;;;;;6.17;4.10;;;;;;;;;;5069993;28;20123;-72
2022/04/27 00:48:28;;;;;;;5.20;4.43;;;6.10;99.90;;;;;;5070977;28;20509;-72
2022/04/27 00:50:56;;;;;;;6.33;4.80;;;5.90;99.90;;;;;;5070523;28;20162;-72
2022/04/27 00:53:22;;;;;;;5.77;4.30;;;5.90;99.90;;;;;;5070182;28;20021;-72
2022/04/27 00:55:48;;;;;;;7.50;4.83;;;;;;;;;;5070582;28;20025;-72
2022/04/27 00:58:15;;;;;;;8.73;6.70;;;5.70;99.90;;;;;;5070043;28;20039;-72
2022/04/27 01:00:40;;;;;;;9.33;6.63;;;5.70;99.90;;;;;;5070131;28;20040;-72
2022/04/27 01:03:06;;;;;;;9.60;5.47;;;5.70;99.90;;;;;;5068916;28;20024;-72
2022/04/27 01:05:32;;;;;;;8.47;5.83;;;5.70;99.90;;;;;;5070634;28;20024;-72
2022/04/27 01:08:00;;;;;;;11.17;4.83;;;5.60;99.90;;;;;;5069587;28;20025;-72
2022/04/27 01:10:27;;;;;;;6.67;4.87;;;5.60;99.90;;;;;;5070495;28;20033;-72
2022/04/27 01:12:54;;;;;;;9.90;5.20;;;5.50;99.90;;;;;;5069080;28;20025;-72
2022/04/27 01:15:31;;;;;;;5.63;4.40;;;5.50;99.90;;;;;;5070097;28;20032;-72
2022/04/27 01:17:59;;;;;;;7.40;4.90;;;5.50;99.90;;;;;;5069958;28;20358;-72
2022/04/27 01:20:29;;;;;;;7.60;4.60;;;5.50;99.90;;;;;;5070219;28;20449;-72
2022/04/27 01:22:55;;;;;;;7.53;4.60;;;5.40;99.90;;;;;;5070021;28;20035;-72
2022/04/27 01:25:21;;;;;;;4.73;3.97;;;;;;;;;;5068244;28;20376;-72
2022/04/27 01:27:46;;;;;;;6.37;4.70;;;5.30;99.90;;;;;;5068811;28;20025;-72
2022/04/27 01:30:12;;;;;;;10.60;6.07;;;5.30;99.90;;;;;;5068417;28;20040;-72
2022/04/27 01:32:37;;;;;;;10.67;5.50;;;5.30;99.90;;;;;;5070129;28;20036;-72
2022/04/27 01:35:03;;;;;;;7.70;4.43;;;5.30;99.90;;;;;;5068296;28;20036;-72
2022/04/27 01:40:13;;;;;;;6.77;4.53;;;5.20;99.90;;;;;;5069119;28;20078;-72
2022/04/27 01:42:39;;;;;;;11.60;5.17;;;5.20;99.90;;;;;;5069648;28;20560;-72
2022/04/27 01:45:06;;;;;;;12.83;5.10;;;5.20;99.90;;;;;;5069644;28;20025;-72
2022/04/27 01:47:31;;;;;;;9.67;5.27;;;5.60;99.90;;;;;;5070023;28;20021;-72
2022/04/27 01:49:57;;;;;;;6.47;4.80;;;5.20;99.90;;;;;;5069664;28;20024;-72
2022/04/27 01:55:07;;;;;;;5.57;3.90;;;5.00;99.90;;;;;;5049588;28;20055;-72
2022/04/27 01:57:33;;;;;;;6.50;4.47;;;;;;;;;;5049478;28;20413;-72
2022/04/27 01:59:59;;;;;;;5.10;4.60;;;;;;;;;;5049325;28;20036;-72
2022/04/27 02:02:24;;;;;;;7.97;5.50;;;5.20;99.90;;;;;;5051957;28;20033;-72
2022/04/27 02:04:50;;;;;;;8.33;5.20;;;5.20;99.90;;;;;;5061742;28;20028;-72
2022/04/27 02:07:16;;;;;;;11.37;5.30;;;;;;;;;;5056662;28;20112;-72
2022/04/27 02:09:41;;;;;;;7.43;5.37;;;4.70;99.90;;;;;;5072870;28;20039;-72
2022/04/27 02:12:07;;;;;;;7.13;5.40;;;5.00;99.90;;;;;;5072853;28;20031;-72
2022/04/27 02:14:33;;;;;;;7.03;5.53;;;5.00;99.90;;;;;;5073565;28;20029;-72
2022/04/27 02:16:59;;;;;;;8.10;5.33;;;;;;;;;;5073273;28;20028;-72
2022/04/27 02:19:24;;;;;;;6.27;4.70;;;5.20;99.90;;;;;;5073762;28;20056;-72
2022/04/27 02:21:50;;;;;;;9.20;5.60;;;4.80;99.90;;;;;;5073419;28;20036;-72
2022/04/27 02:24:16;;;;;;;5.43;4.90;;;4.70;99.90;;;;;;5072744;28;20021;-72
2022/04/27 02:26:42;;;;;;;6.67;4.80;;;4.70;99.90;;;;;;5072967;28;20028;-72
2022/04/27 02:29:09;;;;;;;7.03;5.73;;;4.70;99.90;;;;;;5072916;28;20358;-72
2022/04/27 02:31:35;;;;;;;5.87;4.93;;;;;;;;;;5073547;28;20362;-72
2022/04/27 02:34:00;;;;;;;8.53;5.27;;;4.70;99.90;;;;;;5073145;28;20707;-72
2022/04/27 02:36:26;;;;;;;10.27;6.30;;;;;;;;;;5073355;28;20153;-72
2022/04/27 02:38:52;;;;;;;6.33;4.93;;;4.70;99.90;;;;;;5074924;28;20032;-72
2022/04/27 02:41:18;;;;;;;8.90;5.03;;;;;;;;;;5075434;28;20075;-72
2022/04/27 02:43:44;;;;;;;7.07;5.93;;;4.50;99.90;;;;;;5074721;28;20064;-72
2022/04/27 02:46:10;;;;;;;6.67;5.27;;;;;;;;;;5072903;28;20103;-72
2022/04/27 02:48:35;;;;;;;10.43;5.33;;;4.40;99.90;;;;;;5073131;28;20386;-72
2022/04/27 02:53:45;;;;;;;;;;;4.50;99.90;;;;;;5074196;28;20032;-72
2022/04/27 02:56:10;;;;;;;8.40;5.97;;;4.40;99.90;;;;;;5073347;28;20683;-72
2022/04/27 02:58:36;;;;;;;7.23;5.70;;;4.50;99.90;;;;;;5072633;28;20032;-72
2022/04/27 03:01:01;;;;;;;9.23;6.30;;;4.30;99.90;;;;;;5072428;28;20461;-72
2022/04/27 03:03:27;;;;;;;10.77;6.00;;;4.30;99.90;;;;;;5072872;28;20043;-72
2022/04/27 03:05:53;;;;;;;9.23;7.00;;;4.30;99.90;;;;;;5072618;28;20036;-72
2022/04/27 03:08:19;;;;;;;7.67;6.27;;;;;;;;;;5072486;28;20036;-72
2022/04/27 03:10:47;;;;;;;7.03;6.20;;;4.30;99.90;;;;;;5072165;28;20051;-71
2022/04/27 03:13:12;;;;;;;7.23;6.07;;;4.10;99.90;;;;;;5071428;28;20087;-72
2022/04/27 03:15:38;;;;;;;6.77;6.10;;;4.20;99.90;;;;;;5072424;28;20127;-72
2022/04/27 03:18:22;;;;;;;8.47;6.03;;;;;;;;;;5070673;28;20123;-72
2022/04/27 03:20:50;;;;;;;7.05;5.75;;;4.10;99.90;;;;;;5071972;28;20028;-72
2022/04/27 03:23:18;;;;;;;9.97;6.73;;;4.10;99.90;;;;;;5071946;28;20115;-72
2022/04/27 03:25:44;;;;;;;8.07;6.43;;;;;;;;;;5071806;28;20024;-72
2022/04/27 03:28:10;;;;;;;8.47;6.70;;;4.10;99.90;;;;;;5071777;28;20028;-72
2022/04/27 03:30:36;;;;;;;8.10;6.67;;;4.00;99.90;;;;;;5072288;28;20086;-72
2022/04/27 03:33:01;;;;;;;7.60;5.53;;;4.00;99.90;;;;;;5071270;28;20103;-72
2022/04/27 03:35:28;;;;;;;10.00;6.13;;;;;;;;;;5072264;28;20023;-72
2022/04/27 03:37:54;;;;;;;9.83;6.30;;;3.80;99.90;;;;;;5071905;28;20044;-72
2022/04/27 03:40:21;;;;;;;9.00;6.43;;;3.80;99.90;;;;;;5071622;28;20068;-72
2022/04/27 03:42:48;;;;;;;7.13;5.63;;;3.70;99.90;;;;;;5072183;28;20020;-72
2022/04/27 03:45:13;;;;;;;7.50;6.57;;;3.70;99.90;;;;;;5071275;28;20063;-72
2022/04/27 03:47:39;;;;;;;12.00;6.83;;;3.40;99.90;;;;;;5072130;28;20020;-72
2022/04/27 03:50:05;;;;;;;9.40;6.00;;;;;;;;;;5071575;28;20028;-72
2022/04/27 03:52:31;;;;;;;12.03;7.27;;;3.80;99.90;;;;;;5071414;28;20020;-72
2022/04/27 03:55:00;;;;;;;9.53;6.70;;;3.70;99.90;;;;;;5071409;28;20182;-72
2022/04/27 03:57:26;;;;;;;10.67;7.70;;;3.70;99.90;;;;;;5072042;28;20017;-72
2022/04/27 03:59:52;;;;;;;10.43;8.83;;;3.70;99.90;;;;;;5071128;28;20057;-72
2022/04/27 04:02:17;;;;;;;12.40;8.47;;;3.60;99.90;;;;;;5071443;28;20024;-72
2022/04/27 04:04:43;;;;;;;12.17;8.37;;;;;;;;;;5071607;28;20029;-72
2022/04/27 04:07:09;;;;;;;12.83;7.60;;;3.50;99.90;;;;;;5070661;28;20112;-72
2022/04/27 04:09:34;;;;;;;11.90;8.30;;;3.50;99.90;;;;;;5071537;28;20029;-72
2022/04/27 04:12:00;;;;;;;16.03;8.93;;;3.50;99.90;;;;;;5069888;28;20434;-72
2022/04/27 04:14:25;;;;;;;14.47;8.73;;;3.50;99.90;;;;;;5070111;28;20027;-71
2022/04/27 04:16:50;;;;;;;14.53;9.37;;;3.40;99.90;;;;;;5071374;28;20123;-71
2022/04/27 04:19:17;;;;;;;9.83;7.83;;;3.50;99.90;;;;;;5070092;28;20036;-71
2022/04/27 04:21:42;;;;;;;10.47;7.90;;;3.40;99.90;;;;;;5070561;28;20028;-71
2022/04/27 04:24:08;;;;;;;12.53;7.63;;;3.40;99.90;;;;;;5068761;28;20074;-71
2022/04/27 04:29:18;;;;;;;12.40;8.23;;;;;;;;;;5070846;28;20083;-72
2022/04/27 04:31:43;;;;;;;10.33;8.00;;;3.40;99.90;;;;;;5069708;28;20488;-72
2022/04/27 04:34:09;;;;;;;13.17;8.17;;;;;;;;;;5070717;28;20024;-71
2022/04/27 04:36:34;;;;;;;10.17;8.00;;;3.50;99.90;;;;;;5070587;28;20063;-71
2022/04/27 04:39:00;;;;;;;13.77;9.27;;;3.00;99.90;;;;;;5070573;28;20452;-71
2022/04/27 04:41:25;;;;;;;9.90;7.93;;;3.50;99.90;;;;;;5070754;28;20512;-72
2022/04/27 04:43:52;;;;;;;12.63;7.73;;;;;;;;;;5070790;28;20078;-71
2022/04/27 04:46:18;;;;;;;12.77;8.70;;;3.50;99.90;;;;;;5070325;28;20461;-71
2022/04/27 04:48:43;;;;;;;13.10;8.80;;;3.40;99.90;;;;;;5070579;28;20086;-71
2022/04/27 04:51:09;;;;;;;14.73;8.43;;;3.50;99.90;;;;;;5069983;28;20451;-71
2022/04/27 04:53:35;;;;;;;14.57;8.90;;;;;;;;;;5086251;28;20028;-72
2022/04/27 04:56:01;;;;;;;13.60;8.53;;;;;;;;;;5070251;28;20043;-71
2022/04/27 04:58:26;;;;;;;10.93;7.17;;;3.50;99.90;;;;;;5070658;28;20060;-71
2022/04/27 05:00:52;;;;;;;14.67;8.93;;;;;;;;;;5070363;28;20071;-72
2022/04/27 05:03:18;;;;;;;8.63;7.43;;;3.60;99.90;;;;;;5070156;28;20056;-72
2022/04/27 05:05:44;;;;;;;11.30;7.43;;;3.70;99.90;;;;;;5070105;28;20452;-71
2022/04/27 05:08:10;;;;;;;12.10;8.20;;;3.80;99.90;;;;;;5070371;28;20021;-70
2022/04/27 05:10:35;;;;;;;13.63;9.30;;;3.90;99.90;;;;;;5070899;28;20157;-72
2022/04/27 05:13:01;;;;;;;12.03;7.93;;;3.80;99.90;;;;;;5068249;28;20366;-72
2022/04/27 05:15:27;;;;;;;14.43;8.27;;;3.90;99.90;;;;;;5067995;28;20456;-72
2022/04/27 05:17:52;;;;;;;11.23;7.97;;;3.90;99.90;;;;;;5068986;28;20033;-71
2022/04/27 05:20:18;;;;;;;13.20;8.03;;;4.00;99.90;;;;;;5068508;28;20039;-71
2022/04/27 05:22:44;;;;;;;12.50;8.13;;;;;;;;;;5068804;28;20088;-71
2022/04/27 05:25:11;;;;;;;8.47;7.60;;;4.10;99.90;;;;;;5070715;28;20020;-71
2022/04/27 05:27:37;;;;;;;13.73;8.17;;;4.30;99.90;;;;;;5070420;28;20024;-71
2022/04/27 05:32:49;;;;;;;12.30;8.07;;;4.40;99.90;;;;;;5069293;28;20040;-71
2022/04/27 05:35:14;;;;;;;15.57;8.50;;;4.40;99.90;;;;;;5067996;28;20373;-71
2022/04/27 05:37:40;;;;;;;17.23;8.90;;;;;;;;;;5069827;28;20515;-71
2022/04/27 05:40:07;;;;;;;9.73;7.30;;;4.50;99.90;;;;;;5067709;28;20044;-71
2022/04/27 05:42:35;;;;;;;16.73;8.77;;;4.70;99.90;;;;;;5069893;28;20021;-71
2022/04/27 05:45:00;;;;;;;11.40;7.70;;;4.70;99.90;;;;;;5069332;28;20032;-71
2022/04/27 05:47:26;;;;;;;12.73;8.33;;;4.90;99.90;;;;;;5069855;28;20039;-72
2022/04/27 05:49:52;;;;;;;13.60;8.77;;;4.80;99.90;;;;;;5069356;28;20043;-71
2022/04/27 05:52:20;;;;;;;15.60;8.37;;;4.90;99.90;;;;;;5069810;28;20016;-71
2022/04/27 05:54:46;;;;;;;12.57;8.57;;;;;;;;;;5069909;28;20032;-71
2022/04/27 05:57:11;;;;;;;11.67;8.63;;;5.30;99.90;;;;;;5068743;28;20039;-71
2022/04/27 05:59:37;;;;;;;13.50;8.60;;;5.30;99.90;;;;;;5069726;28;20036;-72
2022/04/27 06:02:02;;;;;;;11.10;8.17;;;5.30;99.90;;;;;;5069031;28;20080;-72
2022/04/27 06:04:28;;;;;;;10.70;8.13;;;5.40;99.90;;;;;;5068298;28;20025;-72
2022/04/27 06:06:54;;;;;;;10.23;8.03;;;;;;;;;;5069604;28;20101;-72
2022/04/27 06:09:20;;;;;;;16.57;8.67;;;;;;;;;;5069303;28;20146;-71
2022/04/27 06:11:46;;;;;;;12.27;8.33;;;5.80;99.90;;;;;;5069624;28;20517;-72
2022/04/27 06:14:11;;;;;;;11.17;8.40;;;5.80;99.90;;;;;;5068918;28;20081;-72
2022/04/27 06:16:37;;;;;;;12.47;8.20;;;5.90;99.90;;;;;;5069741;28;20484;-72
2022/04/27 06:19:03;;;;;;;11.97;8.47;;;6.00;99.90;;;;;;5068754;28;20120;-71
2022/04/27 06:21:31;;;;;;;11.37;8.20;;;6.10;99.90;;;;;;5069471;28;20496;-71
2022/04/27 06:23:58;;;;;;;9.50;7.80;;;5.60;99.90;;;;;;5068953;28;20052;-71
2022/04/27 06:26:24;;;;;;;12.27;8.73;;;;;;;;;;5069312;28;20533;-70
2022/04/27 06:28:49;;;;;;;10.60;8.37;;;6.20;99.90;;;;;;5069492;28;20119;-70
2022/04/27 06:31:15;;;;;;;13.10;9.37;;;6.20;99.90;;;;;;5068866;28;20032;-70
2022/04/27 06:33:40;;;;;;;13.50;9.20;;;6.60;99.90;;;;;;5069126;28;20049;-70
2022/04/27 06:36:06;;;;;;;14.53;10.53;;;;;;;;;;5069147;28;20028;-70
2022/04/27 06:38:32;;;;;;;17.37;10.00;;;6.60;99.90;;;;;;5069473;28;20032;-70
2022/04/27 06:40:58;;;;;;;14.27;10.57;;;6.60;99.90;;;;;;5069114;28;20106;-70
2022/04/27 06:43:23;;;;;;;12.40;9.00;;;;;;;;;;5069293;28;20026;-70
2022/04/27 06:45:49;;;;;;;14.40;11.17;;;;;;;;;;5069479;28;20031;-70
2022/04/27 06:48:15;;;;;;;15.20;10.37;;;;;;;;;;5069436;28;20316;-70
2022/04/27 06:50:41;;;;;;;13.33;9.17;;;6.90;99.90;;;;;;5054864;28;20064;-70
2022/04/27 06:53:09;;;;;;;16.87;10.10;;;;;;;;;;5052695;28;20104;-70
2022/04/27 06:55:35;;;;;;;10.53;9.50;;;;;;;;;;5052886;28;20450;-70
2022/04/27 06:58:00;;;;;;;10.93;9.27;;;7.20;99.90;;;;;;5052370;28;20112;-70
2022/04/27 07:00:26;;;;;;;18.07;10.90;;;;;;;;;;5052777;28;20037;-70
2022/04/27 07:02:52;;;;;;;12.87;8.97;;;7.40;99.90;;;;;;5052174;28;20029;-71
2022/04/27 07:05:20;;;;;;;17.00;9.67;;;;;;;;;;5052631;28;20539;-70
2022/04/27 07:07:46;;;;;;;17.17;9.80;;;;;;;;;;5072280;28;20039;-70
2022/04/27 07:10:12;;;;;;;14.20;10.27;;;7.70;99.90;;;;;;5072226;28;20032;-70
2022/04/27 07:12:38;;;;;;;12.20;9.13;;;8.00;99.90;;;;;;5072471;28;20111;-70
2022/04/27 07:15:05;;;;;;;15.57;10.20;;;7.90;99.90;;;;;;5072205;28;20107;-70
2022/04/27 07:17:30;;;;;;;10.07;8.37;;;8.10;99.90;;;;;;5071996;28;20469;-71
2022/04/27 07:19:57;;;;;;;11.87;8.80;;;;;;;;;;5070451;28;20044;-70
2022/04/27 07:22:22;;;;;;;11.17;7.27;;;8.30;99.90;;;;;;5071273;28;20382;-71
2022/04/27 07:24:49;;;;;;;10.17;7.67;;;;;;;;;;5070927;28;20035;-71
2022/04/27 07:27:15;;;;;;;10.87;7.40;;;8.60;99.90;;;;;;5069993;28;20025;-72
2022/04/27 07:29:41;;;;;;;8.90;7.97;;;8.80;99.90;;;;;;5071159;28;20025;-71
2022/04/27 07:32:07;;;;;;;15.00;7.47;;;;;;;;;;5070306;28;20094;-72
2022/04/27 07:34:33;;;;;;;7.73;6.43;;;;;;;;;;5071134;28;20055;-71
2022/04/27 07:37:00;;;;;;;9.67;6.13;;;9.00;99.90;;;;;;5072074;28;20455;-71
2022/04/27 07:39:26;;;;;;;8.90;5.97;;;9.10;99.90;;;;;;5071461;28;20028;-69
2022/04/27 07:41:52;;;;;;;7.17;5.33;;;;;;;;;;5070312;28;20056;-70
2022/04/27 07:44:18;;;;;;;8.90;5.30;;;;;;;;;;5070701;28;20025;-70
2022/04/27 07:46:47;;;;;;;8.50;4.20;;;9.40;99.90;;;;;;5074521;28;20109;-69
2022/04/27 07:49:13;;;;;;;7.83;5.67;;;9.40;99.90;;;;;;5074224;28;20031;-70
2022/04/27 07:51:39;;;;;;;10.07;4.03;;;;;;;;;;5072583;28;20107;-70
2022/04/27 07:54:05;;;;;;;10.60;5.53;;;;;;;;;;5069810;28;20116;-69
2022/04/27 07:56:31;;;;;;;8.43;4.23;;;10.00;99.90;;;;;;5070174;28;20035;-69
2022/04/27 07:58:56;;;;;;;5.67;3.53;;;9.90;99.90;;;;;;5069861;28;20119;-68
2022/04/27 08:01:22;;;;;;;6.73;3.23;;;;;;;;;;5069869;28;20111;-69
2022/04/27 08:03:48;;;;;;;5.40;3.70;;;10.20;99.90;;;;;;5070417;28;20028;-70
2022/04/27 08:06:14;;;;;;;4.80;3.17;;;10.10;99.90;;;;;;5070061;28;20027;-70
2022/04/27 08:08:39;;;;;;;3.97;3.20;;;10.20;99.90;;;;;;5071457;28;20025;-69
2022/04/27 08:11:07;;;;;;;6.60;3.47;;;10.20;99.90;;;;;;5071048;28;20146;-69
2022/04/27 08:13:33;;;;;;;5.60;2.60;;;;;;;;;;5070891;28;20021;-70
2022/04/27 08:15:59;;;;;;;4.20;2.33;;;10.40;99.90;;;;;;5071156;28;20032;-69
2022/04/27 08:18:25;;;;;;;6.47;2.50;;;;;;;;;;5071357;28;20166;-70
2022/04/27 08:23:36;;;;;;;4.93;2.30;;;10.80;99.90;;;;;;5070931;28;20032;-70
2022/04/27 08:26:04;;;;;;;10.83;3.80;;;10.80;99.90;;;;;;5069644;28;20033;-70
2022/04/27 08:28:30;;;;;;;3.73;2.63;;;;;;;;;;5070596;28;20049;-70
2022/04/27 08:30:56;;;;;;;3.10;1.77;;;10.90;95.90;;;;;;5069563;28;20028;-70
2022/04/27 08:33:22;;;;;;;4.93;2.40;;;10.80;99.90;;;;;;5071021;28;20017;-70
2022/04/27 08:35:49;;;;;;;10.88;3.35;;;;;;;;;;5070292;28;20024;-70
2022/04/27 08:38:15;;;;;;;4.83;2.27;;;11.00;96.30;;;;;;5070042;28;20054;-70
2022/04/27 08:40:42;;;;;;;4.10;3.63;;;11.30;99.90;;;;;;5070135;28;20057;-70
2022/04/27 08:43:09;;;;;;;5.15;2.65;;;;;;;;;;5054361;28;20036;-70
2022/04/27 08:45:36;;;;;;;6.50;3.40;;;11.50;97.60;;;;;;5050732;28;20082;-70
2022/04/27 08:48:02;;;;;;;6.43;2.50;;;11.40;98.90;;;;;;5050310;28;20021;-70
2022/04/27 08:50:28;;;;;;;7.70;2.97;;;11.30;99.90;;;;;;5049424;28;20394;-70
2022/04/27 08:52:55;;;;;;;4.65;2.33;;;11.00;99.90;;;;;;5066141;28;20024;-70
2022/04/27 08:55:22;;;;;;;4.10;2.80;;;11.20;94.90;;;;;;5070531;28;20124;-70
2022/04/27 08:57:48;;;;;;;4.70;2.90;;;11.30;99.90;;;;;;5068585;28;20127;-71
2022/04/27 09:00:22;;;;;;;5.40;3.60;;;11.40;99.90;;;;;;5069896;28;20136;-70
2022/04/27 09:02:52;;;;;;;6.87;3.43;;;11.70;99.90;;;;;;5070251;28;20020;-71
2022/04/27 09:05:24;;;;;;;7.50;3.42;;;11.70;99.90;;;;;;5070203;28;20073;-70
2022/04/27 09:07:52;;;;;;;7.88;3.22;;;12.00;93.90;;;;;;5070267;28;20532;-70
2022/04/27 09:10:24;;;;;;;5.80;3.40;;;12.20;99.10;;;;;;5069578;28;20028;-70
2022/04/27 09:12:55;;;;;;;5.88;3.58;;;12.50;99.90;;;;;;5069977;28;20029;-70
2022/04/27 09:15:22;;;;;;;5.17;3.10;;;12.50;99.90;;;;;;5069190;28;20095;-70
2022/04/27 09:20:47;;;;;;;7.28;4.55;;;12.80;97.50;;;;;;5069273;28;20082;-69
2022/04/27 09:23:40;;;;;;;5.30;3.35;;;13.00;99.90;;;;;;5069239;28;20047;-70
2022/04/27 09:26:18;;;;;;;3.97;3.08;;;12.80;91.70;;;;;;5069474;28;20047;-70
2022/04/27 09:28:53;;;;;;;6.32;3.45;;;13.10;95.70;;;;;;5068963;28;20074;-70
2022/04/27 09:31:44;;;;;;;9.75;4.38;;;13.60;99.10;;;;;;5069571;28;20034;-70
2022/04/27 09:34:28;;;;;;;5.65;3.55;;;13.80;98.80;;;;;;5047532;28;20040;-70
2022/04/27 09:37:13;;;;;;;8.63;3.20;;;13.80;98.60;;;;;;5061999;28;20029;-70
2022/04/27 09:39:39;;;;;;;4.47;2.55;;;14.00;98.50;;;;;;5068398;28;20048;-69
2022/04/27 09:42:06;;;;;;;6.15;3.20;;;13.70;97.70;;;;;;5068622;28;20041;-69
2022/04/27 09:44:34;;;;;;;2.85;2.47;;;13.70;90.60;;;;;;5068377;28;20033;-69
2022/04/27 09:47:03;;;;;;;5.95;3.10;;;13.00;97.10;;;;;;5067347;28;20031;-69
2022/04/27 09:49:36;;;;;;;2.97;2.20;;;13.20;90.10;;;;;;5069239;28;20522;-69
2022/04/27 09:52:03;;;;;;;5.35;3.00;;;13.10;97.50;;;;;;5069766;28;20029;-69
2022/04/27 09:54:31;;;;;;;6.63;3.45;;;13.00;97.50;;;;;;5069862;28;20056;-69
2022/04/27 09:57:01;;;;;;;7.38;2.80;;;12.90;97.40;;;;;;5068542;28;20024;-69
2022/04/27 09:59:34;;;;;;;3.78;2.28;;;12.70;97.40;;;;;;5069921;28;20086;-69
2022/04/27 10:02:04;;;;;;;3.05;2.17;;;12.80;97.50;;;;;;5069542;28;20059;-70
2022/04/27 10:04:30;;;;;;;8.88;2.92;;;12.50;91.40;;;;;;5069458;28;20021;-68
2022/04/27 10:06:58;;;;;;;2.97;2.67;;;12.50;90.60;;;;;;5067974;28;20505;-68
2022/04/27 10:09:25;;;;;;;5.35;2.90;;;12.30;90.80;;;;;;5068200;28;20059;-69
2022/04/27 10:11:53;;;;;;;4.30;1.95;;;12.70;96.40;;;;;;5068447;28;20017;-68
2022/04/27 10:14:19;;;;;;;4.78;2.70;;;;;;;;;;5067788;28;20028;-69
2022/04/27 10:16:48;;;;;;;5.65;3.75;;;12.80;90.40;;;;;;5068523;28;20422;-69
2022/04/27 10:19:15;;;;;;;3.28;2.88;;;;;;;;;;5068014;28;20033;-69
2022/04/27 10:21:58;;;;;;;3.63;2.58;;;13.00;90.50;;;;;;5068121;28;20028;-69
2022/04/27 10:24:37;;;;;;;5.68;2.53;;;13.30;92.60;;;;;;5071878;28;20016;-69
2022/04/27 10:27:18;;;;;;;5.72;2.78;;;13.70;93.80;;;;;;5072010;28;20496;-70
2022/04/27 10:30:01;;;;;;;7.30;3.33;;;14.10;96.30;;;;;;5072180;28;20025;-69
2022/04/27 10:32:34;;;;;;;5.47;2.88;;;14.20;85.10;;;;;;5052237;28;20121;-70
2022/04/27 10:35:12;;;;;;;5.13;2.45;;;14.20;95.50;;;;;;5051934;28;20036;-71
2022/04/27 10:37:44;;;;;;;5.90;2.92;;;14.50;95.10;;;;;;5052244;28;20032;-71
2022/04/27 10:40:37;;;;;;;8.20;3.75;;;14.30;94.60;;;;;;5050900;28;20447;-69
2022/04/27 10:43:06;;;;;;;7.07;3.80;;;14.30;91.30;;;;;;5068231;28;20104;-68
2022/04/27 10:45:32;;;;;;;5.45;3.40;;;;;;;;;;5071167;28;20043;-68
2022/04/27 10:47:57;;;;;;;5.80;3.17;;;14.00;91.70;;;;;;5071239;28;20021;-68
2022/04/27 10:50:26;;;;;;;5.15;3.13;;;13.80;94.50;;;;;;5071344;28;20029;-68
2022/04/27 10:52:55;;;;;;;7.43;2.90;;;13.60;94.10;;;;;;5070131;28;20501;-67
2022/04/27 10:55:35;;;;;;;5.80;3.00;;;13.60;95.00;;;;;;5070958;28;20093;-67
2022/04/27 10:58:22;;;;;;;5.75;3.85;;;13.40;83.10;;;;;;5070923;28;20112;-66
2022/04/27 11:01:02;;;;;;;4.20;3.42;;;13.20;94.80;;;;;;5071558;28;20060;-67
2022/04/27 11:03:35;;;;;;;7.60;3.88;;;13.70;94.90;;;;;;5071451;28;20298;-67
2022/04/27 11:06:03;;;;;;;5.18;3.22;;;13.50;88.90;;;;;;5071144;28;20021;-68
2022/04/27 11:08:59;;;;;;;8.07;3.75;;;13.40;94.80;;;;;;5072048;28;20481;-70
2022/04/27 11:11:26;;;;;;;6.53;3.30;;;13.40;95.20;;;;;;5070662;28;20028;-69
2022/04/27 11:14:01;;;;;;;5.93;2.72;;;13.70;95.00;;;;;;5072324;28;20025;-69
2022/04/27 11:16:27;;;;;;;6.70;3.30;;;13.60;94.50;;;;;;5071973;28;20035;-69
2022/04/27 11:18:55;;;;;;;4.65;2.40;;;;;;;;;;5072262;28;20107;-69
2022/04/27 11:21:21;;;;;;;4.65;2.53;;;;;;;;;;5071280;28;20040;-69
2022/04/27 11:23:47;;;;;;;2.83;2.55;;;13.70;94.40;;;;;;5071272;28;20035;-69
2022/04/27 11:26:13;;;;;;;5.28;2.75;;;13.90;94.20;;;;;;5071874;28;20036;-70
2022/04/27 11:28:41;;;;;;;5.13;2.50;;;13.90;85.70;;;;;;5071482;28;20457;-69
2022/04/27 11:31:07;;;;;;;2.55;2.28;;;14.40;94.20;;;;;;5071833;28;20054;-70
2022/04/27 11:33:39;;;;;;;3.22;2.30;;;;;;;;;;5070106;28;20111;-69
2022/04/27 11:36:05;;;;;;;2.33;2.13;;;14.80;85.70;;;;;;5071933;28;20037;-69
2022/04/27 11:38:37;;;;;;;3.92;2.67;;;14.00;93.40;;;;;;5071359;28;20024;-71
2022/04/27 11:41:12;;;;;;;3.47;3.17;;;14.60;93.50;;;;;;5071247;28;20493;-69
2022/04/27 11:43:38;;;;;;;3.30;2.20;;;14.40;93.60;;;;;;5071962;28;20029;-69
2022/04/27 11:46:03;;;;;;;5.28;4.35;;;14.50;92.90;;;;;;5071984;28;20400;-69
2022/04/27 11:48:29;;;;;;;4.25;2.65;;;13.80;92.80;;;;;;5071765;28;20048;-69
2022/04/27 11:50:57;;;;;;;4.15;3.03;;;14.20;91.90;;;;;;5071588;28;20067;-69
2022/04/27 11:53:23;;;;;;;3.67;2.65;;;14.30;93.20;;;;;;5071718;28;20354;-68
2022/04/27 11:55:50;;;;;;;4.57;2.70;;;14.30;93.10;;;;;;5071274;28;20024;-69
2022/04/27 11:58:23;;;;;;;4.13;2.33;;;14.80;93.00;;;;;;5071296;28;20397;-68
2022/04/27 12:00:56;;;;;;;7.25;3.00;;;14.80;92.50;;;;;;5065352;28;20048;-69
2022/04/27 12:03:23;;;;;;;5.13;3.80;;;15.10;92.60;;;;;;5070929;28;20506;-69
2022/04/27 12:05:51;;;;;;;6.60;3.97;;;15.00;85.30;;;;;;5070547;28;20592;-68
2022/04/27 12:08:23;;;;;;;5.70;4.43;;;15.00;91.80;;;;;;5070645;28;20021;-68
2022/04/27 12:10:49;;;;;;;7.10;4.43;;;15.00;91.90;;;;;;5070783;28;20025;-69
2022/04/27 12:13:16;;;;;;;4.28;3.13;;;15.10;92.00;;;;;;5069535;28;20450;-69
2022/04/27 12:15:49;;;;;;;4.53;3.00;;;15.10;92.20;;;;;;5071312;28;20705;-69
2022/04/27 12:18:17;;;;;;;4.88;3.30;;;15.30;92.00;;;;;;5071108;28;20028;-68
2022/04/27 12:20:44;;;;;;;4.45;3.90;;;15.30;91.90;;;;;;5070872;28;20024;-69
2022/04/27 12:23:23;;;;;;;6.68;3.50;;;15.30;91.60;;;;;;5071080;28;20017;-69
2022/04/27 12:26:00;;;;;;;3.90;2.63;;;15.10;91.80;;;;;;5071392;28;20082;-68
2022/04/27 12:28:31;;;;;;;4.05;3.13;;;15.20;92.20;;;;;;5070868;28;20052;-68
2022/04/27 12:30:59;;;;;;;4.28;3.20;;;15.30;92.10;;;;;;5070458;28;20752;-69
2022/04/27 12:33:32;;;;;;;8.20;2.58;;;15.00;92.10;;;;;;5069770;28;20028;-68
2022/04/27 12:39:04;;;;;;;7.50;2.78;;;15.30;92.40;;;;;;5070562;28;20385;-70
2022/04/27 12:41:39;;;;;;;3.00;2.78;;;15.40;92.10;;;;;;5070181;28;20158;-69
2022/04/27 12:44:19;;;;;;;3.42;2.53;;;15.40;91.40;;;;;;5070862;28;20021;-68
2022/04/27 12:46:57;;;;;;;3.88;2.97;;;15.10;91.60;;;;;;5068815;28;20540;-70
2022/04/27 12:49:30;;;;;;;4.25;2.80;;;15.30;91.60;;;;;;5070116;28;20473;-70
2022/04/27 12:52:12;;;;;;;6.95;3.17;;;15.00;80.10;;;;;;5069883;28;20024;-70
2022/04/27 12:54:37;;;;;;;5.22;3.25;;;15.00;91.40;;;;;;5070812;28;20024;-69
2022/04/27 12:57:03;;;;;;;2.72;2.45;;;15.40;91.40;;;;;;5070617;28;20741;-70
2022/04/27 12:59:29;;;;;;;5.32;3.15;;;;;;;;;;5070479;28;20032;-69
2022/04/27 13:02:04;;;;;;;6.35;3.60;;;15.10;91.10;;;;;;5070475;28;20510;-69
2022/04/27 13:04:31;;;;;;;3.97;2.95;;;15.20;91.00;;;;;;5069506;28;20056;-69
2022/04/27 13:06:57;;;;;;;2.47;2.28;;;15.30;91.30;;;;;;5070256;28;20039;-69
2022/04/27 13:12:07;;;;;;;;;;;15.60;76.20;;;;;;5070726;28;20036;-69
2022/04/27 13:14:33;;;;;;;2.95;2.65;;;;;;;;;;5070184;28;19912;-68
2022/04/27 13:16:59;;;;;;;5.10;3.58;;;15.60;90.90;;;;;;5069819;28;20100;-69
2022/04/27 13:19:24;;;;;;;5.25;3.15;;;15.00;90.60;;;;;;5069681;28;20099;-69
2022/04/27 13:21:50;;;;;;;5.50;2.88;;;15.50;90.70;;;;;;5069591;28;20426;-68
2022/04/27 13:24:16;;;;;;;5.53;3.20;;;15.70;90.80;;;;;;5069816;28;20025;-69
2022/04/27 13:26:42;;;;;;;5.00;2.50;;;15.50;90.90;;;;;;5069929;28;20044;-68
2022/04/27 13:29:08;;;;;;;7.00;3.38;;;15.40;90.80;;;;;;5070059;28;20033;-68
2022/04/27 13:31:34;;;;;;;5.88;2.67;;;15.70;90.80;;;;;;5070014;28;20029;-68
2022/04/27 13:33:59;;;;;;;3.15;2.42;;;15.70;90.80;;;;;;5069544;28;20016;-68
2022/04/27 13:36:25;;;;;;;6.47;4.00;;;15.80;90.50;;;;;;5069411;28;20082;-69
2022/04/27 13:38:51;;;;;;;5.10;3.50;;;16.10;90.40;;;;;;5069867;28;20031;-68